Historyczne dane pomiarowe

Dodano dane terminowe – wersja testowa.

Dane z okresu 1951-2019

Wersja bazy: 1.34 [2019-03-16, lista zmian], aktualizacja planowana na 2019-04-15

Dane meteo z obszaru Polski uzyskane na podstawie danych udostępnionych przez Instytut Meteorologii i Gospodarki Wodnej – Państwowy Instytut Badawczy.

 

Wybierz Datę:    

       

TemperaturaWilgotnośćWiatrCiśnienieOpadyŚniegCzas trwania zjawisk
 Stacja t tx tn tng RH VA  wxwx mslp ppp RRR   cm mm wxwxwxwxwxwxwx
1961-02-15 3.8 10.5 -0.6 -2.5 86.3- 2.7 1.7---- 0.0------------
1961-02-14 1.5 6.0 0.1 0.0 90.5- 4.7 1.3---- 0.0------------
1961-02-13 3.0 4.5 0.8 0.9 92.0- 7.7 1.0---- 1.6------------
1961-02-12 2.9 4.6 1.3 0.6 93.8- 8.0 0.7---- 0.2------------
1961-02-11 2.9 5.6 0.1 -0.1 87.5- 8.0 3.3---- 1.8------------
1961-02-10 1.7 4.9 0.3 1.0 94.5- 8.0 3.3---- 2.9------------
1961-02-09 1.2 2.0 -0.7 -2.5 95.5- 8.0 2.0---- 11.9-- 1---------
1961-02-08 1.4 2.8 -0.2 -2.4 93.3- 4.7 2.3---- 3.0------------
1961-02-07 1.3 5.1 -2.2 -3.6 81.8- 5.7 3.3---- 0.0-- 3---------
1961-02-06 -1.5 1.7 -7.8 -9.1 79.8- 3.0 2.0---- 0.0-- 5---------
1961-02-05 -2.6 -0.3 -4.1 -5.2 88.8- 6.7 1.3---- 1.8-- 3---------
1961-02-04 -1.0 2.3 -2.0 -2.7 87.8- 4.7 2.0---- 0.6-- 3---------
1961-02-03 -0.1 0.8 -1.2 -2.6 92.0- 7.7 2.0---- 3.7------------
1961-02-02 1.1 5.6 -0.4 -1.6 81.0- 4.0 2.3---- 0.0------------
1961-02-01 1.2 3.1 0.2 -1.2 93.8- 8.0 2.0---- 11.5------------
1961-01-31 2.9 4.8 1.6 0.5 93.3- 8.0 3.3---- 2.6-- 2---------
1961-01-30 2.0 4.1 -4.6 -7.1 76.3- 6.7 5.7---- 0.6-- 6---------
1961-01-29 -3.6 0.4 -9.3-11.3 83.8- 4.0 3.7---- 0.0-- 7---------
1961-01-28 -5.6 1.0-15.0-22.8 73.0- 0.0 3.7---- 0.0-- 9---------
1961-01-27-11.9 -2.5-19.7-20.3 74.3- 0.0 1.0---- 0.0-- 9---------
1961-01-26-14.7-10.9-18.1-22.2 84.3- 2.7 2.3---- 0.0-- 11---------
1961-01-25-11.6 -7.1-14.6-15.6 86.0- 5.3 2.0---- 0.0-- 11---------
1961-01-24-11.7 -7.6-15.0-16.6 86.5- 5.0 1.3---- 0.1-- 11---------
1961-01-23 -6.6 -2.5 -9.8 -9.3 91.3- 8.0 1.0---- 1.3-- 6---------
1961-01-22 -5.1 0.0-12.8-15.4 85.5- 4.3 2.3---- 2.1-- 4---------
1961-01-21 -9.2 -3.4-13.7-18.3 80.8- 0.0 1.0---- 0.0-- 5---------
1961-01-20 -7.7 -0.9-12.1-16.6 79.5- 0.0 1.7---- 0.0-- 6---------
1961-01-19 -8.6 -4.5-16.9-21.7 79.0- 7.3 1.3---- 0.0-- 6---------
1961-01-18-14.6 -9.2-19.4-22.3 82.5- 0.0 1.0---- 0.0-- 6---------
1961-01-17 -8.5 -2.0 -9.8-11.5 83.8- 1.3 1.3---- 0.0-- 7---------
1961-01-16 -3.2 -2.0 -6.1 -5.7 94.5- 8.0 1.7---- 0.0-- 7---------
1961-01-15 -1.9 0.4 -3.7 -0.4 95.8- 8.0 1.0---- 0.0-- 7---------
1961-01-14 0.1 1.6 -1.1 -1.6 90.3- 8.0 1.3---- 7.1-- 2---------
1961-01-13 -1.6 0.0 -4.2 -4.0 77.8- 7.0 2.7---- 0.0-- 2---------
1961-01-12 -2.3 1.3 -3.3 -4.5 85.5- 7.3 3.0---- 0.4-- 2---------
1961-01-11 0.6 3.0 -3.4 -4.4 84.8- 5.3 1.3---- 0.5------------
1961-01-10 0.9 5.0 -1.3 -2.5 84.0- 4.0 2.0---- 0.0------------
1961-01-09 1.5 5.8 -0.3 -0.6 83.5- 3.0 2.0---- 0.0------------
1961-01-08 1.1 2.8 0.0 -1.4 90.3- 8.0 2.3---- 0.3-- 1---------
1961-01-07 1.1 3.5 -1.3 -3.4 81.8- 5.3 1.3---- 0.3------------
1961-01-06 0.6 3.6 -1.3 -2.2 83.5- 1.7 2.7---- 0.0------------
1961-01-05 2.1 4.9 1.3 0.4 87.5- 8.0 1.3---- 0.3------------
1961-01-04 5.2 9.3 -0.1 -2.5 80.5- 8.0 2.0---- 1.0------------
1961-01-03 0.7 4.4 -3.4 -4.1 92.0- 4.7 1.3---- 0.0-- 1---------
1961-01-02 -0.4 1.1 -3.7 -3.6 92.3- 8.0 1.0---- 0.4------------
1961-01-01 0.0 1.4 -1.6 -3.0 92.3- 7.3 1.0---- 0.0-- 1---------
1960-12-31 -1.8 -0.6 -4.1 -4.7 94.8- 8.0 1.3---- 0.0-- 1---------
1960-12-30 -2.6 -1.7 -3.5 -2.6 94.8- 8.0 2.7---- 0.1-- 1---------
1960-12-29 -2.6 -1.9 -4.6 -4.5 97.5- 8.0 1.0---- 0.4------------
1960-12-28 -2.9 1.5 -5.6 -6.6 90.8- 5.3 1.0---- 0.0------------
1960-12-27 -1.5 3.0 -3.8 -5.5 83.0- 0.0 2.7---- 0.0------------
1960-12-26 -2.3 1.0 -5.9 -7.7 90.0- 3.7 1.3---- 0.0------------
1960-12-25 -1.5 3.0 -3.8 -2.4 83.3- 3.0 0.3---- 0.0------------
1960-12-24 -0.3 1.3 -3.1 -5.4 85.8- 8.0 0.7---- 0.0------------
1960-12-23 -0.9 1.6 -2.6 -5.3 85.3- 5.3 1.0---- 0.0------------
1960-12-22 2.5 7.1 0.1 0.6 81.3- 0.3 2.0---- 0.0------------
1960-12-21 6.0 10.8 0.2 -1.5 87.3- 7.3 1.0---- 0.0------------
1960-12-20 2.4 6.9 0.8 0.8 93.0- 5.0 1.3---- 0.0------------
1960-12-19 4.9 8.6 2.9 -0.5 85.3- 4.7 1.3---- 0.1------------
1960-12-18 2.2 3.9 -0.3 -0.4 95.0- 8.0 1.3---- 0.5------------
379.7 ms

 

Źródłem pochodzenia danych jest Instytut Meteorologii i Gospodarki Wodnej – Państwowy Instytut Badawczy. Dane Instytutu Meteorologii i Gospodarki Wodnej – Państwowego Instytutu Badawczego zostały przetworzone.

Dane źródłowe można odnaleźć na stronie https://dane.imgw.pl